Time;durP1;ratioP1;P1;durP2;ratioP2;P2;SDS_P1;SDS_P2;PMS_P1;PMS_P2;Temp;Humidity;BMP_temperature;BMP_pressure;BME280_temperature;BME280_humidity;BME280_pressure;Samples;Min_cycle;Max_cycle;Signal;HPM_P1;HPM_P2
2024/01/29 00:02:19;;;;;;;300.80;75.05;;;-2.70;99.90;-0.50;98599.00;;;;5022106;28;20214;-83
2024/01/29 00:05:08;;;;;;;290.20;64.28;;;-2.60;99.90;-0.70;98579.00;;;;5005324;28;20217;-84
2024/01/29 00:07:57;;;;;;;285.50;66.65;;;-2.60;99.90;-1.20;98585.00;;;;5003993;28;20571;-82
2024/01/29 00:10:46;;;;;;;290.08;71.25;;;-2.70;99.90;-1.10;98588.00;;;;5001504;28;20225;-84
2024/01/29 00:13:36;;;;;;;285.90;70.00;;;-2.80;99.90;-1.20;98591.00;;;;5006335;28;20198;-83
2024/01/29 00:16:25;;;;;;;298.52;77.40;;;-2.90;99.90;-1.30;98598.00;;;;4997381;28;20217;-83
2024/01/29 00:19:14;;;;;;;284.00;60.15;;;-2.80;99.90;-1.00;98597.00;;;;5011248;28;20206;-84
2024/01/29 00:22:03;;;;;;;287.17;61.00;;;-2.90;99.90;-0.70;98588.00;;;;5010883;28;20230;-84
2024/01/29 00:24:52;;;;;;;288.63;62.60;;;-2.80;99.90;-1.20;98582.00;;;;5010940;28;20206;-84
2024/01/29 00:27:41;;;;;;;286.42;61.75;;;-2.70;99.90;-2.30;98576.00;;;;5004698;28;20596;-83
2024/01/29 00:30:31;;;;;;;287.35;66.82;;;-3.00;99.90;-1.60;98586.00;;;;5000792;28;20683;-84
2024/01/29 00:33:20;;;;;;;295.73;74.63;;;-3.00;99.90;-1.40;98591.00;;;;5009236;28;20214;-84
2024/01/29 00:36:10;;;;;;;283.13;65.07;;;-3.00;99.90;-1.30;98586.00;;;;4994060;28;20588;-83
2024/01/29 00:38:59;;;;;;;285.90;66.85;;;-2.90;99.90;-1.90;98582.00;;;;5012140;28;20582;-83
2024/01/29 00:41:47;;;;;;;289.40;62.83;;;-3.10;99.90;-2.20;98577.00;;;;5009247;28;20230;-82
2024/01/29 00:44:37;;;;;;;289.48;66.43;;;-3.20;99.90;-1.80;98584.00;;;;5012451;28;20209;-83
2024/01/29 00:47:27;;;;;;;295.13;75.13;;;-3.20;99.90;-1.60;98591.00;;;;5005136;28;20201;-84
2024/01/29 00:50:16;;;;;;;286.98;67.68;;;-3.20;99.90;-1.50;98578.00;;;;5007737;28;20226;-84
2024/01/29 00:53:05;;;;;;;284.35;67.93;;;-3.00;99.90;-1.20;98588.00;;;;5024556;28;20619;-85
2024/01/29 00:55:54;;;;;;;283.65;64.25;;;-3.00;99.90;-0.90;98588.00;;;;5021332;28;20603;-84
2024/01/29 00:58:44;;;;;;;289.98;67.47;;;-2.90;99.90;-0.70;98590.00;;;;5017557;28;20206;-85
2024/01/29 01:01:33;;;;;;;289.55;72.65;;;;;-1.30;98594.00;;;;5009897;28;20241;-84
2024/01/29 01:04:23;;;;;;;295.00;66.00;;;-3.30;99.90;-2.80;98579.00;;;;5006434;28;20206;-85
2024/01/29 01:07:12;;;;;;;283.63;63.35;;;-3.10;99.90;-2.10;98587.00;;;;5003491;28;20203;-84
2024/01/29 01:10:03;;;;;;;284.23;63.10;;;-3.50;99.90;-2.00;98576.00;;;;5013367;28;20214;-84
2024/01/29 01:12:52;;;;;;;284.33;70.10;;;-3.40;99.90;-2.40;98575.00;;;;4999513;28;20234;-84
2024/01/29 01:15:41;;;;;;;285.90;61.78;;;;;-2.10;98592.00;;;;5008534;28;20214;-84
2024/01/29 01:18:30;;;;;;;295.70;67.43;;;-3.50;99.90;-1.40;98589.00;;;;5015150;28;20713;-83
2024/01/29 01:21:20;;;;;;;296.30;68.35;;;-3.30;99.90;-1.40;98597.00;;;;5012588;28;20313;-83
2024/01/29 01:24:09;;;;;;;285.63;62.40;;;-3.30;99.90;-1.60;98584.00;;;;5013818;28;20378;-84
2024/01/29 01:26:58;;;;;;;284.35;61.00;;;-3.40;99.90;-2.30;98578.00;;;;5007092;28;20202;-84
2024/01/29 01:29:46;;;;;;;282.52;67.65;;;-3.50;99.90;-2.60;98579.00;;;;4996236;28;20207;-85
2024/01/29 01:32:35;;;;;;;290.15;67.60;;;;;-2.30;98574.00;;;;4997561;28;20213;-81
2024/01/29 01:35:25;;;;;;;293.27;66.15;;;;;-2.30;98585.00;;;;5011327;28;20225;-81
2024/01/29 01:38:15;;;;;;;285.15;62.33;;;-3.60;99.90;-2.30;98587.00;;;;5008790;28;20206;-84
2024/01/29 01:41:04;;;;;;;280.40;59.85;;;-3.40;99.90;-1.40;98596.00;;;;5010072;28;20233;-83
2024/01/29 01:43:53;;;;;;;281.35;60.45;;;-3.40;99.90;-2.00;98585.00;;;;5004403;28;20194;-82
2024/01/29 01:46:42;;;;;;;281.10;60.75;;;-3.50;99.90;-1.60;98575.00;;;;4993832;28;20225;-83
2024/01/29 01:49:31;;;;;;;281.48;60.65;;;-3.30;99.90;-1.30;98576.00;;;;4994147;28;20259;-83
2024/01/29 01:52:21;;;;;;;287.40;64.07;;;-3.20;99.90;-1.20;98576.00;;;;5005672;28;20224;-82
2024/01/29 01:55:11;;;;;;;304.65;73.28;;;-3.20;99.90;-1.30;98578.00;;;;5009830;28;20583;-83
2024/01/29 01:58:00;;;;;;;282.13;61.50;;;;;-2.20;98569.00;;;;5003737;28;20620;-83
2024/01/29 02:00:50;;;;;;;279.83;60.60;;;-3.40;99.90;-2.60;98566.00;;;;5019856;28;20225;-83
2024/01/29 02:03:40;;;;;;;273.10;57.70;;;;;-2.00;98561.00;;;;5004654;28;20692;-83
2024/01/29 02:06:29;;;;;;;289.60;67.00;;;-3.50;99.90;-1.70;98580.00;;;;5007115;28;20213;-83
2024/01/29 02:09:18;;;;;;;284.10;63.17;;;;;-1.80;98569.00;;;;5015081;28;20202;-83
2024/01/29 02:12:09;;;;;;;278.88;59.95;;;-3.60;99.90;-2.30;98564.00;;;;5020058;28;20222;-85
2024/01/29 02:14:58;;;;;;;291.40;68.15;;;-3.70;99.90;-2.80;98557.00;;;;4999887;28;20206;-83
2024/01/29 02:17:47;;;;;;;279.17;61.47;;;-3.80;99.90;-2.90;98559.00;;;;5000761;28;20202;-84
2024/01/29 02:20:37;;;;;;;277.95;61.22;;;-3.80;99.90;-2.00;98554.00;;;;4994643;28;20227;-83
2024/01/29 02:23:27;;;;;;;284.65;64.57;;;-3.70;99.90;-2.00;98564.00;;;;5012108;28;20618;-82
2024/01/29 02:26:16;;;;;;;282.10;62.33;;;-3.90;99.90;-2.10;98564.00;;;;5001593;28;20734;-82
2024/01/29 02:29:05;;;;;;;277.90;60.45;;;-3.80;99.90;-2.40;98561.00;;;;5020192;28;20217;-84
2024/01/29 02:31:53;;;;;;;276.00;62.47;;;-3.80;99.90;-2.50;98555.00;;;;5021405;28;20225;-84
2024/01/29 02:34:43;;;;;;;279.15;60.85;;;;;-2.80;98559.00;;;;5017471;28;20206;-81
2024/01/29 02:37:31;;;;;;;280.95;68.60;;;-3.70;99.90;-3.50;98544.00;;;;5002971;28;20214;-83
2024/01/29 02:40:22;;;;;;;281.20;69.75;;;-4.10;99.90;-3.40;98534.00;;;;5003257;28;20704;-82
2024/01/29 02:43:11;;;;;;;275.60;65.75;;;-4.30;99.90;-2.60;98554.00;;;;5011798;28;20229;-82
2024/01/29 02:46:00;;;;;;;277.70;60.80;;;-4.00;99.90;-2.30;98560.00;;;;5002189;28;20207;-81
2024/01/29 02:48:49;;;;;;;279.75;63.92;;;-4.00;99.90;-2.00;98562.00;;;;5014349;28;20351;-82
2024/01/29 02:51:38;;;;;;;278.48;62.28;;;-3.80;99.90;-1.80;98567.00;;;;5014409;28;20221;-83
2024/01/29 02:54:27;;;;;;;283.60;71.20;;;-3.70;99.90;-1.60;98569.00;;;;5004105;28;20210;-84
2024/01/29 02:57:23;;;;;;;280.08;61.60;;;-4.90;99.90;-2.10;98563.00;;;;5002884;28;20211;-85
2024/01/29 03:00:13;;;;;;;277.40;65.68;;;-3.80;99.90;-2.40;98553.00;;;;5006872;28;20248;-84
2024/01/29 03:03:02;;;;;;;279.45;62.08;;;-3.70;99.90;-2.40;98552.00;;;;5005294;28;20221;-85
2024/01/29 03:05:51;;;;;;;281.05;60.05;;;-3.80;99.90;-2.60;98556.00;;;;5006784;28;20226;-84
2024/01/29 03:08:39;;;;;;;280.75;60.85;;;-3.70;99.90;-2.80;98551.00;;;;5000021;28;20210;-84
2024/01/29 03:11:28;;;;;;;291.98;66.25;;;-3.60;99.90;-2.80;98534.00;;;;5013592;28;20237;-82
2024/01/29 03:14:18;;;;;;;283.23;62.10;;;-3.50;99.90;-2.80;98553.00;;;;5018291;28;20201;-82
2024/01/29 03:17:07;;;;;;;279.83;65.15;;;-4.00;99.90;-3.30;98541.00;;;;5007583;28;20214;-82
2024/01/29 03:19:57;;;;;;;280.45;66.20;;;-4.20;99.90;-2.70;98539.00;;;;5006543;28;20214;-85
2024/01/29 03:22:46;;;;;;;287.08;71.93;;;-3.60;99.90;-2.40;98548.00;;;;5021956;28;20289;-83
2024/01/29 03:25:34;;;;;;;288.27;66.65;;;-3.60;99.90;-2.30;98538.00;;;;5007976;28;20209;-85
2024/01/29 03:28:23;;;;;;;276.90;64.30;;;-3.50;99.90;-2.50;98546.00;;;;5033718;28;20927;-85
2024/01/29 03:31:13;;;;;;;274.73;61.55;;;-3.70;99.90;-1.80;98551.00;;;;5021531;28;20233;-85
2024/01/29 03:34:02;;;;;;;279.58;59.50;;;-3.90;99.90;-1.60;98551.00;;;;5017078;28;20199;-85
2024/01/29 03:36:51;;;;;;;275.90;66.55;;;-3.50;99.90;-2.00;98545.00;;;;5013014;28;20214;-86
2024/01/29 03:39:40;;;;;;;283.15;60.80;;;-3.80;99.90;-2.40;98540.00;;;;4999478;28;20696;-84
2024/01/29 03:42:29;;;;;;;291.40;66.43;;;;;-2.70;98539.00;;;;5014873;28;20237;-83
2024/01/29 03:45:18;;;;;;;283.17;64.38;;;-3.90;99.90;-2.80;98525.00;;;;5002017;28;20236;-83
2024/01/29 03:48:09;;;;;;;277.42;60.08;;;-3.60;99.90;-3.10;98537.00;;;;5021429;28;20203;-85
2024/01/29 03:50:57;;;;;;;278.45;64.82;;;-3.70;99.90;-2.70;98518.00;;;;4998649;28;20226;-84
2024/01/29 03:53:46;;;;;;;272.20;60.55;;;-3.80;99.90;-3.30;98507.00;;;;5013502;28;20214;-84
2024/01/29 03:56:35;;;;;;;278.90;65.07;;;;;-3.40;98518.00;;;;5015892;28;20214;-81
2024/01/29 03:59:24;;;;;;;282.63;65.93;;;-4.20;99.90;-3.90;98509.00;;;;5006120;28;20213;-84
2024/01/29 04:02:13;;;;;;;275.42;61.00;;;-4.40;99.90;-3.10;98528.00;;;;5015656;28;20253;-83
2024/01/29 04:05:04;;;;;;;276.30;60.10;;;-4.40;99.90;-2.90;98538.00;;;;5003204;28;20206;-84
2024/01/29 04:07:53;;;;;;;278.08;60.40;;;-4.40;99.90;-2.50;98535.00;;;;5001993;28;20206;-84
2024/01/29 04:10:42;;;;;;;273.90;58.58;;;-4.30;99.90;-2.40;98534.00;;;;5009694;28;20241;-85
2024/01/29 04:13:31;;;;;;;293.55;69.72;;;-3.70;99.90;-2.40;98538.00;;;;5005485;28;20488;-84
2024/01/29 04:16:19;;;;;;;279.95;62.60;;;-3.80;99.90;-2.90;98534.00;;;;5013016;28;20213;-82
2024/01/29 04:19:08;;;;;;;277.23;59.97;;;-4.10;99.90;-2.40;98529.00;;;;5005429;28;20206;-83
2024/01/29 04:21:59;;;;;;;273.63;58.08;;;-3.70;99.90;-2.50;98518.00;;;;5007131;28;20306;-83
2024/01/29 04:24:48;;;;;;;277.95;60.47;;;-3.90;99.90;-2.70;98520.00;;;;5002431;28;20658;-82
2024/01/29 04:27:36;;;;;;;274.70;59.15;;;-3.90;99.90;-2.90;98518.00;;;;5003184;28;20211;-82
2024/01/29 04:30:25;;;;;;;283.83;65.55;;;-3.90;99.90;-3.40;98510.00;;;;4998445;28;20238;-83
2024/01/29 04:33:14;;;;;;;277.38;59.83;;;-4.20;99.90;-3.60;98516.00;;;;5016413;28;20194;-83
2024/01/29 04:36:04;;;;;;;272.35;61.25;;;-4.00;99.90;-3.20;98515.00;;;;5015209;28;20408;-81
2024/01/29 04:38:54;;;;;;;277.20;62.22;;;-4.40;99.90;-2.90;98526.00;;;;4997325;28;20224;-82
2024/01/29 04:41:43;;;;;;;276.85;59.17;;;-3.60;99.90;-2.70;98522.00;;;;5016333;28;20233;-83
2024/01/29 04:44:31;;;;;;;289.55;64.32;;;-4.00;99.90;-2.30;98514.00;;;;4995606;28;20233;-83
2024/01/29 04:47:20;;;;;;;285.42;62.25;;;-4.20;99.90;-2.10;98512.00;;;;5021979;28;20210;-83
2024/01/29 04:50:10;;;;;;;285.95;62.10;;;-4.20;99.90;-2.30;98507.00;;;;5018949;28;20233;-82
2024/01/29 04:52:59;;;;;;;279.60;59.45;;;-4.10;99.90;-2.20;98515.00;;;;5011912;28;20651;-82
2024/01/29 04:55:49;;;;;;;281.98;59.95;;;-3.80;99.90;-2.50;98512.00;;;;5010899;28;20209;-83
2024/01/29 04:58:38;;;;;;;283.02;60.25;;;-3.90;99.90;-2.80;98503.00;;;;5007102;28;20199;-83
2024/01/29 05:01:27;;;;;;;286.92;62.65;;;-4.10;99.90;-2.90;98511.00;;;;4999688;28;20236;-85
2024/01/29 05:04:16;;;;;;;273.10;56.03;;;-4.20;99.90;-3.10;98518.00;;;;5010230;28;20234;-82
2024/01/29 05:07:05;;;;;;;280.45;58.83;;;-4.20;99.90;-2.20;98511.00;;;;4996704;28;20209;-82
2024/01/29 05:09:54;;;;;;;276.35;57.58;;;-4.30;99.90;-2.80;98504.00;;;;4999783;28;20209;-81
2024/01/29 05:12:44;;;;;;;292.77;66.38;;;-4.20;99.90;-2.70;98506.00;;;;5003173;28;20221;-83
2024/01/29 05:15:34;;;;;;;279.25;59.95;;;-3.80;99.90;-2.60;98503.00;;;;5010943;28;20210;-83
2024/01/29 05:18:23;;;;;;;284.98;70.90;;;-4.30;99.90;-2.40;98508.00;;;;5011343;28;20276;-83
2024/01/29 05:21:13;;;;;;;273.05;61.58;;;-4.30;99.90;-2.80;98502.00;;;;5004493;28;20624;-83
2024/01/29 05:24:01;;;;;;;273.70;62.00;;;-4.30;99.90;-3.70;98494.00;;;;4997111;28;20613;-87
2024/01/29 05:26:50;;;;;;;276.77;66.20;;;-4.20;99.90;-3.60;98490.00;;;;5009876;28;20207;-83
2024/01/29 05:29:41;;;;;;;275.55;60.13;;;-4.10;99.90;-4.00;98486.00;;;;4999822;28;20209;-86
2024/01/29 05:32:30;;;;;;;284.23;65.32;;;-4.50;99.90;-3.80;98492.00;;;;5002201;28;20206;-86
2024/01/29 05:35:19;;;;;;;277.27;60.60;;;-4.10;99.90;-3.60;98492.00;;;;4995769;28;20199;-85
2024/01/29 05:38:08;;;;;;;272.92;58.53;;;-4.80;99.90;-3.80;98485.00;;;;4997403;28;20210;-83
2024/01/29 05:40:57;;;;;;;274.13;59.75;;;-4.70;99.90;-4.10;98479.00;;;;5011032;28;20537;-85
2024/01/29 05:43:46;;;;;;;274.92;61.30;;;-4.70;99.90;-3.80;98480.00;;;;5028417;28;20611;-85
2024/01/29 05:46:36;;;;;;;284.88;67.10;;;-4.90;99.90;-3.30;98478.00;;;;5003572;28;20213;-87
2024/01/29 05:49:25;;;;;;;283.92;66.50;;;-4.40;99.90;-3.00;98482.00;;;;5010728;28;20213;-84
2024/01/29 05:52:13;;;;;;;274.88;60.47;;;-3.70;99.90;-3.40;98480.00;;;;5021961;28;20592;-84
2024/01/29 05:55:03;;;;;;;270.05;57.75;;;-4.80;99.90;-2.80;98486.00;;;;5008862;28;20232;-85
2024/01/29 05:57:52;;;;;;;272.75;60.28;;;-4.60;99.90;-2.80;98469.00;;;;5007927;28;20210;-85
2024/01/29 06:00:41;;;;;;;268.15;62.83;;;-3.90;99.90;-3.20;98477.00;;;;4998681;28;20231;-85
2024/01/29 06:03:31;;;;;;;284.70;81.55;;;-4.70;99.90;-3.20;98466.00;;;;5014600;28;20488;-84
2024/01/29 06:06:20;;;;;;;261.35;67.22;;;-4.70;99.90;-3.30;98469.00;;;;5012809;28;20679;-85
2024/01/29 06:09:09;;;;;;;262.10;61.70;;;-4.70;99.90;-3.30;98458.00;;;;5013680;28;20203;-83
2024/01/29 06:11:59;;;;;;;250.10;59.63;;;-4.70;99.90;-3.50;98458.00;;;;5026036;28;20222;-84
2024/01/29 06:14:48;;;;;;;225.68;68.20;;;-4.70;99.90;-4.50;98464.00;;;;5007211;28;20194;-86
2024/01/29 06:17:37;;;;;;;279.65;71.65;;;;;-4.50;98453.00;;;;5006235;28;20206;-85
2024/01/29 06:20:27;;;;;;;257.23;73.28;;;-5.00;99.90;-4.40;98455.00;;;;5015336;28;20218;-84
2024/01/29 06:23:17;;;;;;;252.13;67.63;;;-5.10;99.90;-4.30;98463.00;;;;5016185;28;20214;-85
2024/01/29 06:26:06;;;;;;;257.63;60.25;;;-4.40;99.90;-4.10;98476.00;;;;4998917;28;20199;-83
2024/01/29 06:28:58;;;;;;;324.42;129.93;;;-5.30;99.90;-3.50;98480.00;;;;4959809;28;20210;-84
2024/01/29 06:31:47;;;;;;;321.80;136.20;;;-5.00;99.90;-4.00;98469.00;;;;4997460;28;20222;-82
2024/01/29 06:34:37;;;;;;;215.40;62.08;;;-5.00;99.90;-4.70;98467.00;;;;4992778;28;20198;-84
2024/01/29 06:37:27;;;;;;;235.63;64.07;;;-5.10;99.90;-4.00;98480.00;;;;5003739;28;20203;-84
2024/01/29 06:40:16;;;;;;;250.75;62.55;;;-5.10;99.90;-4.20;98475.00;;;;5015756;28;20232;-83
2024/01/29 06:43:05;;;;;;;342.83;129.52;;;-5.00;99.90;-3.60;98482.00;;;;4978370;28;20214;-84
2024/01/29 06:45:54;;;;;;;276.40;73.07;;;-4.90;99.90;-4.20;98477.00;;;;4953977;28;20211;-86
2024/01/29 06:48:43;;;;;;;338.60;118.72;;;-4.80;99.90;-4.20;98490.00;;;;4970630;28;20219;-83
2024/01/29 06:51:32;;;;;;;268.70;60.08;;;-4.60;99.90;-4.60;98486.00;;;;4988734;28;20722;-84
2024/01/29 06:54:23;;;;;;;277.25;61.03;;;-4.90;99.90;-4.60;98481.00;;;;4997774;28;20203;-82
2024/01/29 06:57:12;;;;;;;366.63;133.60;;;-4.10;99.90;-4.00;98494.00;;;;4965255;28;20573;-82
2024/01/29 07:00:01;;;;;;;364.30;128.88;;;-4.80;99.90;-3.80;98514.00;;;;4960058;28;20351;-83
2024/01/29 07:02:50;;;;;;;333.52;124.38;;;;;-3.20;98518.00;;;;4961966;28;20618;-83
2024/01/29 07:05:39;;;;;;;360.63;170.90;;;-4.60;99.90;-3.40;98520.00;;;;4954527;28;20311;-84
2024/01/29 07:08:28;;;;;;;351.02;119.60;;;-4.10;99.90;-4.20;98524.00;;;;4964043;28;20255;-82
2024/01/29 07:11:18;;;;;;;315.58;99.07;;;-4.60;99.90;-4.00;98525.00;;;;4961644;28;20238;-83
2024/01/29 07:14:07;;;;;;;255.88;60.03;;;-4.60;99.90;-3.90;98527.00;;;;4984143;28;20199;-82
2024/01/29 07:16:56;;;;;;;263.88;60.40;;;-4.60;99.90;-3.90;98527.00;;;;4997234;28;20255;-84
2024/01/29 07:19:48;;;;;;;277.92;61.92;;;-3.30;99.90;-3.40;98544.00;;;;5014057;27;20232;-83
2024/01/29 07:22:38;;;;;;;294.25;70.47;;;-3.80;99.90;-3.60;98552.00;;;;4998074;28;20627;-82
2024/01/29 07:25:27;;;;;;;302.60;75.75;;;-4.10;99.90;-3.90;98543.00;;;;5007641;27;20234;-82
2024/01/29 07:28:18;;;;;;;286.60;65.15;;;-4.50;99.90;-4.00;98539.00;;;;4992401;28;20206;-84
2024/01/29 07:31:06;;;;;;;277.65;59.00;;;-4.20;99.90;-4.10;98542.00;;;;5006468;28;20695;-83
2024/01/29 07:33:55;;;;;;;284.13;62.90;;;-4.50;99.90;-3.50;98546.00;;;;4997489;28;20662;-83
2024/01/29 07:36:44;;;;;;;282.83;61.85;;;-4.50;99.90;-3.70;98547.00;;;;4999563;28;20206;-82
2024/01/29 07:39:33;;;;;;;276.52;61.00;;;-4.40;99.90;-3.40;98544.00;;;;4995298;28;20217;-82
2024/01/29 07:42:22;;;;;;;281.33;62.45;;;-4.10;99.90;-3.20;98551.00;;;;5018100;28;20236;-84
2024/01/29 07:45:12;;;;;;;272.88;63.22;;;-4.10;99.90;-3.10;98566.00;;;;5020105;28;20218;-85
2024/01/29 07:48:04;;;;;;;275.77;61.03;;;-3.90;99.90;-3.50;98561.00;;;;4999846;28;20210;-83
2024/01/29 07:50:53;;;;;;;274.23;58.88;;;-3.70;99.90;-3.40;98549.00;;;;5019477;28;20290;-84
2024/01/29 07:53:42;;;;;;;276.17;60.90;;;-3.60;99.90;-3.70;98544.00;;;;5015727;28;20582;-85
2024/01/29 07:56:31;;;;;;;287.10;65.93;;;-3.80;99.90;-2.90;98563.00;;;;5003124;28;20198;-83
2024/01/29 07:59:20;;;;;;;273.75;59.80;;;-4.10;99.90;-3.20;98553.00;;;;5018167;28;20252;-85
2024/01/29 08:02:10;;;;;;;274.25;58.92;;;-4.00;99.90;-2.90;98562.00;;;;5005012;28;20222;-85
2024/01/29 08:04:59;;;;;;;279.85;61.97;;;-3.90;99.90;-2.70;98568.00;;;;5006780;28;20232;-84
2024/01/29 08:07:48;;;;;;;272.58;58.78;;;-3.50;99.90;-2.10;98581.00;;;;4998185;28;20202;-84
2024/01/29 08:10:36;;;;;;;276.35;60.40;;;-3.40;99.90;-2.20;98571.00;;;;5007825;28;20233;-83
2024/01/29 08:13:25;;;;;;;288.38;69.72;;;-3.50;99.90;-1.70;98576.00;;;;5030880;27;20209;-83
2024/01/29 08:16:14;;;;;;;284.60;61.25;;;-3.40;99.90;-2.00;98583.00;;;;5016912;28;20214;-84
2024/01/29 08:19:05;;;;;;;281.45;60.10;;;-3.20;99.90;-2.00;98583.00;;;;5015105;28;20207;-85
2024/01/29 08:21:54;;;;;;;285.13;61.88;;;-3.10;99.90;-1.80;98572.00;;;;5008265;28;20222;-84
2024/01/29 08:24:43;;;;;;;292.40;65.80;;;-2.90;99.90;-1.40;98570.00;;;;5007800;28;20234;-84
2024/01/29 08:27:33;;;;;;;294.98;67.68;;;-2.90;99.90;-1.10;98584.00;;;;5008447;28;20686;-84
2024/01/29 08:30:22;;;;;;;288.13;62.80;;;-2.70;99.90;-1.20;98580.00;;;;5008833;28;20229;-85
2024/01/29 08:33:11;;;;;;;284.17;60.85;;;-2.50;99.90;-0.70;98585.00;;;;5022982;28;20213;-84
2024/01/29 08:36:01;;;;;;;288.13;62.00;;;-2.40;99.90;-0.90;98599.00;;;;5005247;28;20202;-84
2024/01/29 08:38:50;;;;;;;292.08;64.60;;;-2.20;99.90;-0.30;98599.00;;;;5023434;28;20210;-84
2024/01/29 08:41:39;;;;;;;295.75;65.80;;;-2.10;99.90;0.00;98596.00;;;;5005123;28;21006;-83
2024/01/29 08:44:28;;;;;;;295.40;65.97;;;-1.90;99.90;0.10;98596.00;;;;5022093;28;20885;-83
2024/01/29 08:47:17;;;;;;;298.20;66.95;;;-1.80;99.90;-0.10;98595.00;;;;4999683;28;20205;-83
2024/01/29 08:50:07;;;;;;;297.27;65.78;;;-1.70;99.90;-0.20;98597.00;;;;5002588;28;20690;-82
2024/01/29 08:52:57;;;;;;;293.50;64.05;;;-1.60;99.90;0.40;98607.00;;;;5004642;28;20587;-83
2024/01/29 08:55:46;;;;;;;291.17;63.15;;;-1.60;99.90;-0.10;98604.00;;;;5000179;28;20210;-84
2024/01/29 08:58:36;;;;;;;299.25;67.55;;;-1.60;99.90;-0.10;98588.00;;;;5007953;28;20628;-83
2024/01/29 09:01:24;;;;;;;297.50;66.60;;;-1.60;99.90;0.60;98595.00;;;;5002070;28;20707;-84
2024/01/29 09:04:13;;;;;;;294.85;64.80;;;-1.40;99.90;-0.10;98594.00;;;;5011643;27;20224;-83
2024/01/29 09:07:02;;;;;;;293.63;63.83;;;-1.40;99.90;0.40;98595.00;;;;5007416;28;20250;-83
2024/01/29 09:09:53;;;;;;;298.25;67.43;;;-1.10;99.90;1.10;98605.00;;;;5004872;28;20241;-83
2024/01/29 09:12:43;;;;;;;307.92;71.15;;;-1.20;99.90;1.20;98587.00;;;;5008720;28;20221;-84
2024/01/29 09:15:32;;;;;;;308.23;71.40;;;-1.00;99.90;1.40;98607.00;;;;5003713;28;20679;-84
2024/01/29 09:18:21;;;;;;;299.03;65.27;;;-0.80;99.90;1.70;98605.00;;;;4996838;28;20927;-85
2024/01/29 09:21:10;;;;;;;302.43;66.93;;;-0.70;99.90;1.10;98599.00;;;;5005775;28;20457;-82
2024/01/29 09:23:59;;;;;;;299.50;70.27;;;-0.50;99.90;2.00;98596.00;;;;4997217;28;20445;-82
2024/01/29 09:26:49;;;;;;;309.20;73.03;;;-0.40;99.90;2.60;98605.00;;;;4998018;28;20466;-82
2024/01/29 09:29:38;;;;;;;313.20;75.10;;;-0.10;99.90;2.80;98604.00;;;;4996077;28;20461;-82
2024/01/29 09:32:27;;;;;;;318.47;77.00;;;0.10;99.90;2.90;98617.00;;;;4999131;28;20437;-82
2024/01/29 09:35:16;;;;;;;315.17;73.70;;;0.40;99.90;2.90;98619.00;;;;5006444;28;20445;-85
2024/01/29 09:38:05;;;;;;;308.40;69.00;;;0.60;99.90;3.20;98606.00;;;;5006256;28;20440;-83
2024/01/29 09:40:56;;;;;;;308.67;72.07;;;0.80;99.90;3.20;98616.00;;;;5013328;28;20795;-84
2024/01/29 09:43:48;;;;;;;320.60;78.87;;;1.00;99.90;3.60;98619.00;;;;5002903;28;20965;-82
2024/01/29 09:46:41;;;;;;;316.13;72.07;;;1.20;99.90;3.60;98620.00;;;;5004492;28;20874;-83
2024/01/29 09:49:29;;;;;;;318.67;76.33;;;1.40;99.90;3.80;98616.00;;;;5002085;28;20448;-82
2024/01/29 09:52:18;;;;;;;307.67;69.57;;;1.60;99.90;3.80;98609.00;;;;5006068;28;20444;-83
2024/01/29 09:55:11;;;;;;;305.03;78.00;;;1.80;99.90;4.00;98613.00;;;;5004192;28;20469;-83
2024/01/29 09:58:00;;;;;;;315.10;73.57;;;1.90;99.90;4.40;98620.00;;;;5002062;28;20452;-82
2024/01/29 10:00:52;;;;;;;311.77;70.67;;;2.10;99.90;4.10;98610.00;;;;5006803;28;20998;-83
2024/01/29 10:03:42;;;;;;;310.77;69.80;;;2.20;99.90;4.40;98620.00;;;;5001645;28;20452;-83
2024/01/29 10:06:31;;;;;;;316.10;75.50;;;2.30;99.90;4.80;98615.00;;;;4998996;28;20461;-82
2024/01/29 10:09:21;;;;;;;321.43;75.77;;;2.50;99.90;4.70;98598.00;;;;5000441;28;20478;-82
2024/01/29 10:12:21;;;;;;;281.73;72.07;;;2.60;99.90;4.80;98601.00;;;;4999407;28;20453;-82
2024/01/29 10:15:12;;;;;;;312.97;79.83;;;2.80;99.90;4.90;98598.00;;;;4999991;28;20448;-82
2024/01/29 10:18:03;;;;;;;330.17;78.53;;;3.00;99.70;5.00;98603.00;;;;5000890;28;20441;-81
2024/01/29 10:21:01;;;;;;;324.03;74.17;;;3.10;99.20;5.60;98602.00;;;;4998707;28;20461;-83
2024/01/29 10:23:56;;;;;;;323.03;77.17;;;3.30;98.90;5.50;98596.00;;;;5005937;28;20442;-82
2024/01/29 10:26:46;;;;;;;317.70;71.63;;;3.50;98.60;5.80;98589.00;;;;5006395;28;20491;-83
2024/01/29 10:29:35;;;;;;;328.27;76.13;;;3.60;98.00;5.90;98594.00;;;;5014227;28;20460;-82
2024/01/29 10:32:24;;;;;;;326.93;76.40;;;3.80;97.60;6.20;98583.00;;;;5013067;28;20437;-82
2024/01/29 10:35:15;;;;;;;320.83;73.97;;;4.00;97.20;5.90;98582.00;;;;5012969;28;20437;-83
2024/01/29 10:38:05;;;;;;;326.20;75.50;;;4.10;96.20;6.70;98586.00;;;;5025017;28;20791;-83
2024/01/29 10:40:58;;;;;;;324.57;75.43;;;4.30;96.40;8.10;98590.00;;;;5012941;28;20472;-85
2024/01/29 10:43:49;;;;;;;331.67;79.63;;;5.10;96.00;8.30;98582.00;;;;5004021;28;20452;-84
2024/01/29 10:46:38;;;;;;;339.57;86.93;;;6.50;94.70;8.70;98586.00;;;;5030995;28;20471;-84
2024/01/29 10:49:29;;;;;;;341.73;89.53;;;7.70;91.30;9.80;98588.00;;;;5015907;28;20452;-84
2024/01/29 10:52:21;;;;;;;338.17;87.57;;;8.90;88.80;9.00;98572.00;;;;5007402;28;20433;-83
2024/01/29 10:55:11;;;;;;;344.83;95.50;;;9.40;79.60;8.80;98561.00;;;;5014467;28;20437;-84
2024/01/29 10:58:01;;;;;;;345.07;95.60;;;9.60;76.50;9.70;98574.00;;;;5002180;28;20434;-83
2024/01/29 11:00:52;;;;;;;348.00;100.63;;;9.80;75.10;10.20;98569.00;;;;5003347;28;20704;-83
2024/01/29 11:03:43;;;;;;;358.93;112.87;;;10.10;74.70;10.20;98560.00;;;;5001466;28;20601;-82
2024/01/29 11:06:38;;;;;;;345.27;97.20;;;10.50;70.10;10.70;98565.00;;;;5005184;28;20221;-83
2024/01/29 11:09:30;;;;;;;344.47;97.43;;;10.70;70.60;11.30;98568.00;;;;5003578;28;20590;-83
2024/01/29 11:12:19;;;;;;;340.67;93.40;;;11.10;68.50;12.10;98583.00;;;;5017609;28;20215;-84
2024/01/29 11:15:10;;;;;;;350.33;103.53;;;11.50;67.80;12.00;98568.00;;;;4998201;28;20201;-84
2024/01/29 11:17:59;;;;;;;347.27;107.53;;;12.00;65.10;12.00;98564.00;;;;5002827;28;20212;-85
2024/01/29 11:20:52;;;;;;;350.23;111.80;;;12.20;63.50;12.40;98556.00;;;;4998725;28;20218;-85
2024/01/29 11:23:44;;;;;;;355.53;117.00;;;12.50;60.80;13.20;98561.00;;;;5015280;28;20214;-84
2024/01/29 11:26:34;;;;;;;361.70;117.40;;;12.90;59.20;13.50;98561.00;;;;5002222;28;20228;-84
2024/01/29 11:29:23;;;;;;;356.93;118.80;;;13.20;57.40;14.40;98568.00;;;;5000890;28;20620;-83
2024/01/29 11:32:16;;;;;;;359.80;123.87;;;13.50;57.80;15.70;98570.00;;;;5002996;28;20835;-83
2024/01/29 11:35:15;;;;;;;362.73;132.90;;;14.00;58.40;15.60;98566.00;;;;5015843;28;20813;-83
2024/01/29 11:38:08;;;;;;;358.17;139.47;;;14.50;55.60;16.00;98565.00;;;;5017634;28;20206;-85
2024/01/29 11:41:02;;;;;;;367.93;150.43;;;14.70;56.00;15.00;98553.00;;;;5002282;28;20223;-83
2024/01/29 11:43:53;;;;;;;360.90;141.50;;;15.00;54.30;15.90;98557.00;;;;5001650;28;20281;-84
2024/01/29 11:46:44;;;;;;;383.20;168.47;;;14.90;54.80;17.00;98556.00;;;;5011888;28;20222;-83
2024/01/29 11:49:33;;;;;;;373.17;173.50;;;15.20;56.20;16.60;98546.00;;;;4998042;28;20202;-83
2024/01/29 11:52:22;;;;;;;372.50;180.50;;;15.40;55.80;16.40;98551.00;;;;5005411;28;20210;-86
2024/01/29 11:55:11;;;;;;;381.70;193.33;;;15.20;54.90;15.50;98538.00;;;;5008112;28;20206;-85
2024/01/29 11:58:01;;;;;;;373.03;185.90;;;15.10;55.00;16.10;98537.00;;;;4999353;28;20206;-86
2024/01/29 12:00:55;;;;;;;387.53;193.80;;;15.00;54.80;16.20;98541.00;;;;4999778;28;20218;-84
2024/01/29 12:03:48;;;;;;;366.80;178.40;;;14.80;55.00;16.70;98537.00;;;;5000317;28;20207;-85
2024/01/29 12:06:39;;;;;;;373.10;170.63;;;14.70;55.80;16.80;98529.00;;;;4999508;28;20717;-86
2024/01/29 12:09:30;;;;;;;375.50;184.30;;;14.80;55.60;16.90;98526.00;;;;5003656;28;20210;-86
2024/01/29 12:12:19;;;;;;;367.77;185.63;;;14.80;55.60;17.20;98531.00;;;;5026624;28;20220;-87
2024/01/29 12:15:12;;;;;;;376.20;199.70;;;14.80;55.60;17.30;98530.00;;;;5014297;27;20218;-86